Atar, Mauritania

1:53 AM GMT on October 26, 2014 (GMT +0000)
Atar | Change Station
CLOSE
Current Station
Airport
Location: Atar,
Elevation: 735 ft
Nearby Weather Stations

Elev 735 ft 20.52 °N, 13.07 °W | Updated 1 hour ago

Clear
Clear
86 °F
Feels Like 86 °F
N
0
Wind Variable Wind from North

Today
High -- | Low -- °F
--% Chance of Precip.
Yesterday
High -- | Low -- °F
Precip. -- in
6:51 AM 6:20 PM
Waxing Crescent, 5% visible
Pressure 30.04 in
Visibility 5.0 miles
Clouds
Dew Point 48 °F
Humidity 27%
Rainfall 0.00 in
Snow Depth Not available.
UV Not available.
Pollen Not available.
Air Quality Not available.
Flu Activity Not available.
METAR GQPA 260000Z 00000KT 8000 NSC 30/09 Q1017

More Conditions Fewer Conditions

Pressure 30.04 in
Visibility 5.0 miles
Clouds
Dew Point 48 °F
Humidity 27%
Rainfall 0.00 in
Snow Depth Not available.
UV Not available.
Pollen Not available.
Air Quality Not available.
Flu Activity Not available.
METAR GQPA 260000Z 00000KT 8000 NSC 30/09 Q1017

More Conditions Fewer Conditions

10-Day Weather Forecast

Almanac

Astronomy

Oct. 26, 2014 Rise Set
Actual Time 6:51 AM GMT 6:20 PM GMT
Civil Twilight 6:28 AM GMT 6:43 PM GMT
Nautical Twilight 6:02 AM GMT 7:09 PM GMT
Astronomical Twilight 5:37 AM GMT 7:35 PM GMT
Moon 9:04 AM GMT 8:34 PM GMT
Length of Visible Light 12h 14m
Length of Day
11h 29m
Tomorrow will be 1m 3s shorter.
Waxing Crescent, 5% of the Moon is Illuminated
Oct 25
Waxing Crescent
Oct 30
First Quarter
Nov 6
Full
Nov 14
Last Quarter
Nov 22
New

Yesterday's Extremes

Country Highs Country Lows

Community

WunderPhotos

Upload Photos

1,765,071 photos uploaded!

Nearby

Snow Depth

Not available.

Earthquake Activity

City Distance Mag. Time & Date
No recent earthquake activity has been reported nearby.
Minimum magnitude displayed is 2.5.

Coastal Water Temperatures

Place Temperature
No Stations Reporting

Nearby Weather Stations